Rollingstone, Minnesota
Current Conditions -  °F | °C
As of 4:34 PM on Friday 19 Dec 2014 (Local Time) from KONA Reporting Station
Overcast Overcast  
Wind Chill: 26°   Ceiling: 2400
Heat Index: 32°   Visibility: 10mi
Dew Point: 23°   Wind: 6mph
Humidity: 69%   Direction: 150°SSE
Pressure: 30.27"   Gusts: NA
Location:  44.1°N, 91.82°W
Report Text: KONA 192234Z AUTO 15005KT 10SM OVC024 00/M05 A3027 RMK AO2
Loading
Personal Weather Stations






























Interactive Weather Map New forecast layout! Learn more

10-Day Weather Forecast

Advertisements
Track Severe Weather on mobile